x

Newport, Or (nwpo3) Weather Station

3:00pm - Sat 28th Feb 2015 All times are PST. -8 hours from GMT.

  • Wind
    11mph, 14mph gusts
  • Air Temp 56°f
  • Sea Pressure 1018.9mb
  • Newport, Or
  • Newport, Or

More Historic Weather Station data

Upgrade to MSW Pro to gain access to the past 30 days of data for over 8000 Wavebouys and Weather Stations around the globe.

Join Pro

Comparision Forecast

View Surf forecast
   
Sat 02/28 3:00pm 11 14 mph 1018.9mb 56f
2:00pm 11 18 mph 1018.7mb 56f
1:00pm 14 17 mph 1018.5mb 55f
12:00pm 9 11 mph 1018.6mb 54f
11:00am 13 14 mph 1018.1mb 52f
10:00am 9 10 mph 1017.6mb 51f
9:00am 11 14 mph 1016.6mb 49f
8:00am 9 10 mph 1016mb 48f
7:00am 7 9 mph 1014.5mb 46f
6:00am  -  1 mph 1014.2mb 46f
5:00am 10 11 mph 1013.1mb 47f
4:00am 1 2 mph 1011.7mb 47f
3:00am  -  1 mph 1010.9mb 47f
2:00am 7
mph
1010.4mb 48f
1:00am 8 9 mph 1009.7mb 48f
12:00am 8 10 mph 1008.6mb 47f
Fri 02/27 11:00pm 10 14 mph 1007.7mb 48f
10:00pm 6 7 mph 1007.1mb 47f
9:00pm 5
mph
1006.4mb 47f
8:00pm 5
mph
1006mb 47f
7:00pm 3
mph
1005.9mb 48f
6:00pm 2 3 mph 1005.7mb 50f
5:00pm 5 7 mph 1005.8mb 50f
4:00pm 5 6 mph 1005.9mb 50f
3:00pm 8 10 mph 1006.1mb 50f
2:00pm 10 11 mph 1006.5mb 49f
1:00pm 9 10 mph 1006.9mb 50f
12:00pm 9 11 mph 1007.7mb 49f
11:00am 11 14 mph 1007.9mb 51f
10:00am 11 13 mph 1008.2mb 51f
9:00am 9 13 mph 1008.3mb 50f
8:00am 11 14 mph 1008.4mb 49f
7:00am 16 20 mph 1008.7mb 49f
6:00am 15 21 mph 1009mb 50f
5:00am 10 14 mph 1009.4mb 49f
4:00am 16 18 mph 1009.9mb 49f
3:00am 11 15 mph 1010.2mb 50f
2:00am 17 20 mph 1010.8mb 51f
1:00am 21 26 mph 1010.7mb 51f
12:00am 22 26 mph 1010.9mb 51f
Thu 02/26 11:00pm 9 10 mph 1011.2mb 52f
10:00pm 8 9 mph 1012mb 51f
9:00pm 3 5 mph 1012.9mb 50f
8:00pm 3 5 mph 1013.8mb 51f
7:00pm  -  1 mph 1014.6mb 51f
6:00pm 2
mph
1015.5mb 51f
5:00pm 8 10 mph 1016.6mb 51f
4:00pm 14 18 mph 1017.7mb 51f
3:00pm 18 22 mph 1018.7mb 51f
2:00pm 22 25 mph 1019.5mb 51f
1:00pm 20 24 mph 1020.2mb 50f
12:00pm 22 25 mph 1021.2mb 51f
11:00am 21 25 mph 1021.9mb 51f
10:00am 23 25 mph 1022.6mb 51f
9:00am 17 20 mph 1023mb 50f
8:00am 14 16 mph 1023.1mb 49f
7:00am 14 16 mph 1023.1mb 49f
6:00am 18 21 mph 1023.6mb 50f
5:00am 15 18 mph 1024.3mb 49f
4:00am 13 15 mph 1025mb 49f
3:00am 13 14 mph 1025.5mb 49f
2:00am 7 8 mph 1026.4mb 49f
1:00am 3 5 mph 1026.9mb 50f
12:00am 2 3 mph 1027.4mb 50f
Wed 02/25 11:00pm 9 11 mph 1028mb 50f
10:00pm 10 11 mph 1028.2mb 51f
9:00pm 2
mph
1028.3mb 49f
8:00pm 3 5 mph 1028.3mb 50f
7:00pm 9
mph
1028.8mb 51f
6:00pm 14 16 mph 1029mb 51f
5:00pm 8 10 mph 1029.5mb 49f
4:00pm 7 8 mph 1029.6mb 50f
3:00pm 3 5 mph 1030mb 52f
2:00pm 7
mph
1030.4mb 51f
1:00pm 2
mph
1030.8mb 51f
12:00pm 3 5 mph 1031.5mb 51f
11:00am 5 6 mph 1031.3mb 50f
10:00am 2 3 mph 1031.6mb 49f
9:00am 5 6 mph 1031.8mb 46f
8:00am 2 3 mph 1031.9mb 44f
7:00am 5 6 mph 1031.5mb 44f
6:00am 5 6 mph 1031.3mb 44f
5:00am 7 8 mph 1031.5mb 45f
4:00am 2
mph
1031.4mb 47f
3:00am 2
mph
1031.6mb 48f
2:00am 2
mph
1031.4mb 47f
1:00am 2
mph
1031.4mb 47f